PAUN

Details ICAO PAUN (UNK)
Name Unalakleet
Region USA (Alaska)
Timezone America/Anchorage (UTC-9.0)
Plans Departing 101
Arriving 73
Stats Elevation 27 ft / 8 m (AMSL)
Location 63.886600° -160.797000°
Runways 2
Magnetic Variation 11.099° E
Sunrise 2021-01-15 20:07:35 UTC / 2021-01-15 11:07:35 Local
Sunset 2021-01-16 01:40:08 UTC / 2021-01-15 16:40:08 Local
Advertisement - Login to hide

Runways

ID Width Length Bearing (true/mag) Surface Threshold Overrun Markings Lighting
08 75 ft / 23 m 1,902 ft / 580 m 98.42° / 87.32° ASPHALT 0 ft / 0 m 190 ft / 58 m VISUAL EDGE THRESHOLD
15 150 ft / 46 m 5,906 ft / 1,800 m 164.16° / 153.06° ASPHALT 0 ft / 0 m 0 ft / 0 m PREC-APP EDGE THRESHOLD MALSR
26 75 ft / 23 m 1,902 ft / 580 m 278.43° / 267.33° ASPHALT 0 ft / 0 m 0 ft / 0 m VISUAL EDGE THRESHOLD
33 150 ft / 46 m 5,906 ft / 1,800 m 344.17° / 333.07° ASPHALT 0 ft / 0 m 125 ft / 38 m APP EDGE THRESHOLD REIL-UNI

Map

Weather


0- 5 10 15 20 25 30 35+ Temperature / °C

Clouds and Precipitation
Forecast for 2021-01-16 06:00 UTC. Updated 5 hours ago

Ground ~20,000 ft ~40,000 ft Winds

METAR

PAUN 160756Z AUTO 08012KT 9SM OVC039 M11/M13 A2948 RMK AO2 SNE16B40E51 SLP987 P0000 T11111133 FZRANO

TAF

TAF PAUN 160539Z 1606/1706 09012KT P6SM VCSH FEW050 FM170300 05010KT P6SM OVC050

Frequencies

Unicom 123.00 MHz UNK CTAF
Tower 135.25 MHz Anchorage ARTCC
Recorded 132.25 MHz AWOS 3
Warning: Do not use this data for real-world aviation or navigation. No guarantee of current accuracy is given.